sensor_id;sensor_type;location;lat;lon;timestamp;pressure;altitude;pressure_sealevel;temperature;humidity
71105;BME280;58760;48.716;8.962;2023-03-08T00:05:23;95120.56;;;2.87;61.39
71105;BME280;58760;48.716;8.962;2023-03-08T00:07:51;95124.34;;;2.85;61.55
71105;BME280;58760;48.716;8.962;2023-03-08T00:10:17;95128.91;;;2.83;61.46
71105;BME280;58760;48.716;8.962;2023-03-08T00:12:42;95121.84;;;2.83;61.38
71105;BME280;58760;48.716;8.962;2023-03-08T00:15:07;95119.75;;;2.79;61.36
71105;BME280;58760;48.716;8.962;2023-03-08T00:17:35;95121.19;;;2.73;61.53
71105;BME280;58760;48.716;8.962;2023-03-08T00:20:00;95120.88;;;2.76;61.63
71105;BME280;58760;48.716;8.962;2023-03-08T00:22:26;95127.41;;;2.72;61.45
71105;BME280;58760;48.716;8.962;2023-03-08T00:24:52;95127.88;;;2.68;61.62
71105;BME280;58760;48.716;8.962;2023-03-08T00:27:17;95133.25;;;2.58;61.98
71105;BME280;58760;48.716;8.962;2023-03-08T00:29:42;95150.75;;;2.57;61.95
71105;BME280;58760;48.716;8.962;2023-03-08T00:32:08;95156.78;;;2.50;61.95
71105;BME280;58760;48.716;8.962;2023-03-08T00:34:33;95156.78;;;2.50;62.16
71105;BME280;58760;48.716;8.962;2023-03-08T00:36:59;95156.78;;;2.50;61.84
71105;BME280;58760;48.716;8.962;2023-03-08T00:39:24;95153.50;;;2.48;61.95
71105;BME280;58760;48.716;8.962;2023-03-08T00:41:49;95150.09;;;2.55;61.70
71105;BME280;58760;48.716;8.962;2023-03-08T00:44:15;95151.75;;;2.56;62.10
71105;BME280;58760;48.716;8.962;2023-03-08T00:46:40;95145.97;;;2.45;62.04
71105;BME280;58760;48.716;8.962;2023-03-08T00:49:05;95139.91;;;2.44;62.70
71105;BME280;58760;48.716;8.962;2023-03-08T00:51:30;95128.34;;;2.55;62.32
71105;BME280;58760;48.716;8.962;2023-03-08T00:53:56;95130.63;;;2.50;62.68
71105;BME280;58760;48.716;8.962;2023-03-08T00:56:21;95134.41;;;2.55;62.48
71105;BME280;58760;48.716;8.962;2023-03-08T00:58:46;95127.00;;;2.51;62.68
71105;BME280;58760;48.716;8.962;2023-03-08T01:01:16;95127.00;;;2.51;62.99
71105;BME280;58760;48.716;8.962;2023-03-08T01:03:42;95126.03;;;2.52;62.98
71105;BME280;58760;48.716;8.962;2023-03-08T01:06:11;95128.47;;;2.45;63.13
71105;BME280;58760;48.716;8.962;2023-03-08T01:08:37;95121.06;;;2.33;63.21
71105;BME280;58760;48.716;8.962;2023-03-08T01:11:04;95108.44;;;2.28;63.72
71105;BME280;58760;48.716;8.962;2023-03-08T01:13:33;95110.41;;;2.26;63.74
71105;BME280;58760;48.716;8.962;2023-03-08T01:15:59;95099.94;;;2.26;64.13
71105;BME280;58760;48.716;8.962;2023-03-08T01:18:25;95102.34;;;2.20;64.60
71105;BME280;58760;48.716;8.962;2023-03-08T01:20:59;95102.50;;;2.18;64.75
71105;BME280;58760;48.716;8.962;2023-03-08T01:23:25;95089.19;;;2.03;65.17
71105;BME280;58760;48.716;8.962;2023-03-08T01:26:01;95092.34;;;2.07;65.17
71105;BME280;58760;48.716;8.962;2023-03-08T01:28:27;95081.63;;;1.92;65.65
71105;BME280;58760;48.716;8.962;2023-03-08T01:30:53;95085.44;;;1.98;65.73
71105;BME280;58760;48.716;8.962;2023-03-08T01:33:18;95084.53;;;1.89;65.93
71105;BME280;58760;48.716;8.962;2023-03-08T01:35:45;95079.63;;;1.86;66.26
71105;BME280;58760;48.716;8.962;2023-03-08T01:38:11;95077.94;;;1.77;66.46
71105;BME280;58760;48.716;8.962;2023-03-08T01:40:36;95069.47;;;1.83;66.18
71105;BME280;58760;48.716;8.962;2023-03-08T01:43:25;95059.88;;;1.92;66.00
71105;BME280;58760;48.716;8.962;2023-03-08T01:48:36;95047.03;;;1.73;66.50
71105;BME280;58760;48.716;8.962;2023-03-08T01:51:04;95051.75;;;1.69;66.67
71105;BME280;58760;48.716;8.962;2023-03-08T01:53:32;95043.13;;;1.77;66.67
71105;BME280;58760;48.716;8.962;2023-03-08T01:55:59;95037.19;;;1.67;66.51
71105;BME280;58760;48.716;8.962;2023-03-08T01:58:25;95042.13;;;1.70;66.74
71105;BME280;58760;48.716;8.962;2023-03-08T02:00:50;95034.56;;;1.58;67.13
71105;BME280;58760;48.716;8.962;2023-03-08T02:03:16;95045.84;;;1.59;67.11
71105;BME280;58760;48.716;8.962;2023-03-08T02:05:42;95039.00;;;1.66;67.08
71105;BME280;58760;48.716;8.962;2023-03-08T02:08:08;95041.28;;;1.69;66.83
71105;BME280;58760;48.716;8.962;2023-03-08T02:10:34;95037.81;;;1.61;66.98
71105;BME280;58760;48.716;8.962;2023-03-08T02:13:02;95052.13;;;1.74;66.83
71105;BME280;58760;48.716;8.962;2023-03-08T02:15:28;95040.81;;;1.66;66.86
71105;BME280;58760;48.716;8.962;2023-03-08T02:17:53;95040.81;;;1.66;66.96
71105;BME280;58760;48.716;8.962;2023-03-08T02:20:33;95037.56;;;1.72;66.82
71105;BME280;58760;48.716;8.962;2023-03-08T02:23:13;95022.84;;;1.71;67.20
71105;BME280;58760;48.716;8.962;2023-03-08T02:25:39;95018.13;;;1.74;66.62
71105;BME280;58760;48.716;8.962;2023-03-08T02:28:08;95017.38;;;1.82;66.68
71105;BME280;58760;48.716;8.962;2023-03-08T02:30:36;95017.81;;;1.77;66.65
71105;BME280;58760;48.716;8.962;2023-03-08T02:33:02;95019.16;;;1.89;66.36
71105;BME280;58760;48.716;8.962;2023-03-08T02:35:28;95020.16;;;1.88;66.09
71105;BME280;58760;48.716;8.962;2023-03-08T02:37:54;95011.00;;;1.92;66.59
71105;BME280;58760;48.716;8.962;2023-03-08T02:40:19;95015.41;;;1.92;66.11
71105;BME280;58760;48.716;8.962;2023-03-08T02:42:45;95011.56;;;2.04;66.02
71105;BME280;58760;48.716;8.962;2023-03-08T02:45:10;95006.00;;;2.07;66.19
71105;BME280;58760;48.716;8.962;2023-03-08T02:47:36;95004.03;;;2.09;65.35
71105;BME280;58760;48.716;8.962;2023-03-08T02:50:02;94989.69;;;2.13;65.34
71105;BME280;58760;48.716;8.962;2023-03-08T02:52:27;95009.13;;;2.19;64.99
71105;BME280;58760;48.716;8.962;2023-03-08T02:54:52;94992.28;;;2.21;64.97
71105;BME280;58760;48.716;8.962;2023-03-08T02:57:18;94989.22;;;2.26;65.05
71105;BME280;58760;48.716;8.962;2023-03-08T02:59:44;94986.59;;;2.26;65.03
71105;BME280;58760;48.716;8.962;2023-03-08T03:02:09;94980.03;;;2.22;64.99
71105;BME280;58760;48.716;8.962;2023-03-08T03:04:35;94970.56;;;2.29;64.91
71105;BME280;58760;48.716;8.962;2023-03-08T03:07:00;94969.56;;;2.14;65.47
71105;BME280;58760;48.716;8.962;2023-03-08T03:09:26;94959.94;;;2.14;66.36
71105;BME280;58760;48.716;8.962;2023-03-08T03:11:52;94954.19;;;2.10;66.09
71105;BME280;58760;48.716;8.962;2023-03-08T03:14:17;94948.44;;;1.99;66.97
71105;BME280;58760;48.716;8.962;2023-03-08T03:16:43;94937.50;;;2.03;66.60
71105;BME280;58760;48.716;8.962;2023-03-08T03:19:08;94928.66;;;1.96;67.10
71105;BME280;58760;48.716;8.962;2023-03-08T03:21:34;94923.13;;;2.07;66.99
71105;BME280;58760;48.716;8.962;2023-03-08T03:23:59;94923.31;;;2.22;65.78
71105;BME280;58760;48.716;8.962;2023-03-08T03:26:25;94928.53;;;2.14;66.07
71105;BME280;58760;48.716;8.962;2023-03-08T03:28:51;94922.66;;;2.20;65.93
71105;BME280;58760;48.716;8.962;2023-03-08T03:31:19;94915.31;;;2.24;65.96
71105;BME280;58760;48.716;8.962;2023-03-08T03:33:46;94909.91;;;2.17;66.43
71105;BME280;58760;48.716;8.962;2023-03-08T03:36:16;94913.63;;;2.06;66.48
71105;BME280;58760;48.716;8.962;2023-03-08T03:38:42;94900.53;;;1.90;66.88
71105;BME280;58760;48.716;8.962;2023-03-08T03:41:15;94897.28;;;1.88;66.82
71105;BME280;58760;48.716;8.962;2023-03-08T03:43:42;94896.44;;;1.88;66.62
71105;BME280;58760;48.716;8.962;2023-03-08T03:46:11;94894.91;;;1.69;67.35
71105;BME280;58760;48.716;8.962;2023-03-08T03:48:37;94890.31;;;1.63;67.59
71105;BME280;58760;48.716;8.962;2023-03-08T03:51:05;94900.63;;;1.65;67.71
71105;BME280;58760;48.716;8.962;2023-03-08T03:53:32;94907.72;;;1.88;66.53
71105;BME280;58760;48.716;8.962;2023-03-08T03:56:17;94907.88;;;1.79;66.70
71105;BME280;58760;48.716;8.962;2023-03-08T03:58:43;94907.69;;;1.80;66.67
71105;BME280;58760;48.716;8.962;2023-03-08T04:01:10;94909.69;;;1.94;66.49
71105;BME280;58760;48.716;8.962;2023-03-08T04:03:36;94896.56;;;1.70;67.06
71105;BME280;58760;48.716;8.962;2023-03-08T04:06:12;94896.38;;;1.64;67.59
71105;BME280;58760;48.716;8.962;2023-03-08T04:08:38;94895.41;;;1.73;67.56
71105;BME280;58760;48.716;8.962;2023-03-08T04:11:18;94897.38;;;1.63;67.53
71105;BME280;58760;48.716;8.962;2023-03-08T04:13:44;94884.72;;;1.50;68.07
71105;BME280;58760;48.716;8.962;2023-03-08T04:16:18;94879.66;;;1.48;68.07
71105;BME280;58760;48.716;8.962;2023-03-08T04:18:44;94878.78;;;1.82;66.82
71105;BME280;58760;48.716;8.962;2023-03-08T04:21:10;94875.34;;;1.81;66.75
71105;BME280;58760;48.716;8.962;2023-03-08T04:23:36;94878.13;;;1.80;66.96
71105;BME280;58760;48.716;8.962;2023-03-08T04:26:02;94874.81;;;1.62;67.59
71105;BME280;58760;48.716;8.962;2023-03-08T04:28:27;94879.41;;;1.76;67.69
71105;BME280;58760;48.716;8.962;2023-03-08T04:30:53;94882.84;;;1.68;67.67
71105;BME280;58760;48.716;8.962;2023-03-08T04:33:19;94876.34;;;1.96;67.18
71105;BME280;58760;48.716;8.962;2023-03-08T04:35:44;94868.34;;;1.82;67.29
71105;BME280;58760;48.716;8.962;2023-03-08T04:38:10;94862.28;;;1.89;67.05
71105;BME280;58760;48.716;8.962;2023-03-08T04:40:36;94857.56;;;1.85;67.05
71105;BME280;58760;48.716;8.962;2023-03-08T04:43:22;94859.66;;;1.89;67.06
71105;BME280;58760;48.716;8.962;2023-03-08T04:45:47;94852.78;;;1.80;67.02
71105;BME280;58760;48.716;8.962;2023-03-08T04:48:13;94839.41;;;1.75;67.49
71105;BME280;58760;48.716;8.962;2023-03-08T04:50:38;94827.97;;;1.84;67.02
71105;BME280;58760;48.716;8.962;2023-03-08T04:53:04;94834.50;;;1.88;67.20
71105;BME280;58760;48.716;8.962;2023-03-08T04:55:29;94818.50;;;1.99;66.92
71105;BME280;58760;48.716;8.962;2023-03-08T04:57:54;94821.75;;;1.93;66.81
71105;BME280;58760;48.716;8.962;2023-03-08T05:00:20;94827.00;;;1.85;67.22
71105;BME280;58760;48.716;8.962;2023-03-08T05:02:45;94818.31;;;1.93;67.23
71105;BME280;58760;48.716;8.962;2023-03-08T05:05:11;94809.69;;;2.00;66.49
71105;BME280;58760;48.716;8.962;2023-03-08T05:07:36;94823.56;;;1.85;67.18
71105;BME280;58760;48.716;8.962;2023-03-08T05:10:01;94822.44;;;2.03;66.56
71105;BME280;58760;48.716;8.962;2023-03-08T05:12:27;94812.94;;;2.02;66.32
71105;BME280;58760;48.716;8.962;2023-03-08T05:14:52;94812.28;;;2.08;66.62
71105;BME280;58760;48.716;8.962;2023-03-08T05:17:17;94810.34;;;2.10;67.00
71105;BME280;58760;48.716;8.962;2023-03-08T05:19:43;94809.84;;;2.07;67.03
71105;BME280;58760;48.716;8.962;2023-03-08T05:22:08;94797.91;;;2.13;66.66
71105;BME280;58760;48.716;8.962;2023-03-08T05:24:33;94792.66;;;2.13;66.43
71105;BME280;58760;48.716;8.962;2023-03-08T05:26:59;94791.69;;;2.14;66.57
71105;BME280;58760;48.716;8.962;2023-03-08T05:29:24;94786.78;;;2.02;67.40
71105;BME280;58760;48.716;8.962;2023-03-08T05:31:50;94773.84;;;2.25;66.25
71105;BME280;58760;48.716;8.962;2023-03-08T05:34:15;94770.75;;;2.22;66.20
71105;BME280;58760;48.716;8.962;2023-03-08T05:36:40;94768.47;;;2.19;66.09
71105;BME280;58760;48.716;8.962;2023-03-08T05:39:07;94773.53;;;2.20;65.85
71105;BME280;58760;48.716;8.962;2023-03-08T05:41:32;94759.97;;;2.08;65.97
71105;BME280;58760;48.716;8.962;2023-03-08T05:44:00;94766.19;;;2.07;65.75
71105;BME280;58760;48.716;8.962;2023-03-08T05:46:25;94765.84;;;2.02;66.05
71105;BME280;58760;48.716;8.962;2023-03-08T05:48:50;94761.94;;;1.90;66.99
71105;BME280;58760;48.716;8.962;2023-03-08T05:51:17;94766.34;;;2.06;66.78
71105;BME280;58760;48.716;8.962;2023-03-08T05:53:42;94769.28;;;1.87;67.01
71105;BME280;58760;48.716;8.962;2023-03-08T05:56:09;94763.56;;;1.99;67.35
71105;BME280;58760;48.716;8.962;2023-03-08T05:58:35;94762.41;;;2.02;66.48
71105;BME280;58760;48.716;8.962;2023-03-08T06:01:12;94765.69;;;2.12;67.59
71105;BME280;58760;48.716;8.962;2023-03-08T06:03:38;94762.75;;;2.23;67.21
71105;BME280;58760;48.716;8.962;2023-03-08T06:06:04;94761.94;;;2.06;67.51
71105;BME280;58760;48.716;8.962;2023-03-08T06:08:29;94763.56;;;2.16;67.08
71105;BME280;58760;48.716;8.962;2023-03-08T06:10:54;94762.59;;;2.17;66.83
71105;BME280;58760;48.716;8.962;2023-03-08T06:13:20;94756.69;;;2.23;66.87
71105;BME280;58760;48.716;8.962;2023-03-08T06:15:45;94745.75;;;2.03;67.08
71105;BME280;58760;48.716;8.962;2023-03-08T06:18:10;94763.25;;;1.94;67.66
71105;BME280;58760;48.716;8.962;2023-03-08T06:20:36;94753.28;;;2.06;67.88
71105;BME280;58760;48.716;8.962;2023-03-08T06:23:01;94745.59;;;2.13;67.73
71105;BME280;58760;48.716;8.962;2023-03-08T06:25:26;94732.66;;;2.27;67.21
71105;BME280;58760;48.716;8.962;2023-03-08T06:27:52;94730.03;;;2.27;66.82
71105;BME280;58760;48.716;8.962;2023-03-08T06:30:17;94731.66;;;2.28;67.20
71105;BME280;58760;48.716;8.962;2023-03-08T06:32:43;94716.63;;;2.30;67.71
71105;BME280;58760;48.716;8.962;2023-03-08T06:35:08;94715.81;;;2.30;67.17
71105;BME280;58760;48.716;8.962;2023-03-08T06:37:34;94711.38;;;2.30;67.42
71105;BME280;58760;48.716;8.962;2023-03-08T06:40:00;94715.13;;;2.44;67.28
71105;BME280;58760;48.716;8.962;2023-03-08T06:42:26;94713.44;;;2.51;67.07
71105;BME280;58760;48.716;8.962;2023-03-08T06:44:51;94703.94;;;2.58;66.58
71105;BME280;58760;48.716;8.962;2023-03-08T06:47:17;94704.06;;;2.64;67.30
71105;BME280;58760;48.716;8.962;2023-03-08T06:49:42;94712.38;;;2.76;67.43
71105;BME280;58760;48.716;8.962;2023-03-08T06:52:07;94700.41;;;2.82;67.35
71105;BME280;58760;48.716;8.962;2023-03-08T06:54:33;94704.47;;;2.84;67.44
71105;BME280;58760;48.716;8.962;2023-03-08T06:56:58;94701.16;;;2.98;67.52
71105;BME280;58760;48.716;8.962;2023-03-08T06:59:24;94703.09;;;2.96;67.50
71105;BME280;58760;48.716;8.962;2023-03-08T07:01:49;94699.75;;;3.10;67.92
71105;BME280;58760;48.716;8.962;2023-03-08T07:04:14;94696.16;;;3.11;67.36
71105;BME280;58760;48.716;8.962;2023-03-08T07:06:42;94701.19;;;3.21;67.60
71105;BME280;58760;48.716;8.962;2023-03-08T07:09:07;94682.88;;;3.13;68.21
71105;BME280;58760;48.716;8.962;2023-03-08T07:11:33;94684.28;;;3.24;67.87
71105;BME280;58760;48.716;8.962;2023-03-08T07:13:58;94676.28;;;3.25;68.30
71105;BME280;58760;48.716;8.962;2023-03-08T07:16:24;94676.94;;;3.19;68.23
71105;BME280;58760;48.716;8.962;2023-03-08T07:18:49;94670.22;;;3.25;68.92
71105;BME280;58760;48.716;8.962;2023-03-08T07:21:14;94665.09;;;3.31;68.81
71105;BME280;58760;48.716;8.962;2023-03-08T07:23:40;94659.06;;;3.23;68.97
71105;BME280;58760;48.716;8.962;2023-03-08T07:26:06;94660.59;;;3.40;69.14
71105;BME280;58760;48.716;8.962;2023-03-08T07:28:31;94660.44;;;3.41;69.23
71105;BME280;58760;48.716;8.962;2023-03-08T07:30:57;94650.56;;;3.43;69.17
71105;BME280;58760;48.716;8.962;2023-03-08T07:33:22;94649.88;;;3.49;69.72
71105;BME280;58760;48.716;8.962;2023-03-08T07:35:48;94648.22;;;3.48;69.71
71105;BME280;58760;48.716;8.962;2023-03-08T07:38:14;94646.44;;;3.49;70.56
71105;BME280;58760;48.716;8.962;2023-03-08T07:40:39;94644.03;;;3.39;71.00
71105;BME280;58760;48.716;8.962;2023-03-08T07:43:05;94641.44;;;3.39;72.01
71105;BME280;58760;48.716;8.962;2023-03-08T07:45:31;94636.88;;;3.33;71.72
71105;BME280;58760;48.716;8.962;2023-03-08T07:47:57;94637.25;;;3.30;72.03
71105;BME280;58760;48.716;8.962;2023-03-08T07:50:23;94626.91;;;3.29;72.44
71105;BME280;58760;48.716;8.962;2023-03-08T07:52:49;94627.97;;;3.20;73.11
71105;BME280;58760;48.716;8.962;2023-03-08T07:55:14;94616.44;;;3.29;73.58
71105;BME280;58760;48.716;8.962;2023-03-08T07:57:40;94619.16;;;3.35;74.34
71105;BME280;58760;48.716;8.962;2023-03-08T08:00:06;94607.66;;;3.44;74.43
71105;BME280;58760;48.716;8.962;2023-03-08T08:02:33;94608.56;;;3.29;74.03
71105;BME280;58760;48.716;8.962;2023-03-08T08:04:58;94577.03;;;3.22;74.85
71105;BME280;58760;48.716;8.962;2023-03-08T08:07:24;94577.91;;;3.37;75.09
71105;BME280;58760;48.716;8.962;2023-03-08T08:09:49;94568.84;;;3.40;76.05
71105;BME280;58760;48.716;8.962;2023-03-08T08:12:14;94572.59;;;3.60;76.65
71105;BME280;58760;48.716;8.962;2023-03-08T08:14:40;94567.06;;;3.55;74.80
71105;BME280;58760;48.716;8.962;2023-03-08T08:17:05;94560.56;;;3.51;74.59
71105;BME280;58760;48.716;8.962;2023-03-08T08:19:31;94551.69;;;3.37;74.91
71105;BME280;58760;48.716;8.962;2023-03-08T08:21:56;94554.56;;;3.28;75.72
71105;BME280;58760;48.716;8.962;2023-03-08T08:24:21;94546.59;;;3.36;74.81
71105;BME280;58760;48.716;8.962;2023-03-08T08:26:47;94535.50;;;3.34;74.90
71105;BME280;58760;48.716;8.962;2023-03-08T08:29:13;94536.88;;;3.44;75.66
71105;BME280;58760;48.716;8.962;2023-03-08T08:31:38;94528.50;;;3.63;75.51
71105;BME280;58760;48.716;8.962;2023-03-08T08:34:03;94530.09;;;3.64;75.82
71105;BME280;58760;48.716;8.962;2023-03-08T08:36:29;94515.72;;;3.75;74.65
71105;BME280;58760;48.716;8.962;2023-03-08T08:38:54;94514.72;;;3.91;75.11
71105;BME280;58760;48.716;8.962;2023-03-08T08:41:21;94504.56;;;4.17;75.01
71105;BME280;58760;48.716;8.962;2023-03-08T08:43:47;94504.28;;;4.27;73.20
71105;BME280;58760;48.716;8.962;2023-03-08T08:46:14;94498.66;;;4.30;73.35
71105;BME280;58760;48.716;8.962;2023-03-08T08:48:40;94497.91;;;4.36;73.84
71105;BME280;58760;48.716;8.962;2023-03-08T08:51:08;94503.38;;;4.55;72.35
71105;BME280;58760;48.716;8.962;2023-03-08T08:53:35;94498.56;;;4.38;73.19
71105;BME280;58760;48.716;8.962;2023-03-08T08:58:37;94488.59;;;4.48;73.34
71105;BME280;58760;48.716;8.962;2023-03-08T09:01:02;94495.72;;;4.54;73.55
71105;BME280;58760;48.716;8.962;2023-03-08T09:03:27;94497.91;;;4.50;72.01
71105;BME280;58760;48.716;8.962;2023-03-08T09:05:53;94487.56;;;4.49;74.79
71105;BME280;58760;48.716;8.962;2023-03-08T09:08:18;94493.41;;;4.65;76.34
71105;BME280;58760;48.716;8.962;2023-03-08T09:10:44;94493.69;;;4.56;75.83
71105;BME280;58760;48.716;8.962;2023-03-08T09:13:09;94496.16;;;4.57;75.64
71105;BME280;58760;48.716;8.962;2023-03-08T09:15:35;94479.75;;;4.55;76.15
71105;BME280;58760;48.716;8.962;2023-03-08T09:18:01;94486.16;;;4.67;76.40
71105;BME280;58760;48.716;8.962;2023-03-08T09:20:27;94471.84;;;4.70;77.74
71105;BME280;58760;48.716;8.962;2023-03-08T09:22:52;94474.25;;;4.93;77.38
71105;BME280;58760;48.716;8.962;2023-03-08T09:25:17;94466.56;;;4.91;77.37
71105;BME280;58760;48.716;8.962;2023-03-08T09:27:44;94462.28;;;5.11;76.17
71105;BME280;58760;48.716;8.962;2023-03-08T09:30:12;94445.38;;;5.20;76.45
71105;BME280;58760;48.716;8.962;2023-03-08T09:32:37;94445.78;;;5.24;75.52
71105;BME280;58760;48.716;8.962;2023-03-08T09:35:03;94445.03;;;5.30;75.06
71105;BME280;58760;48.716;8.962;2023-03-08T09:37:29;94439.13;;;5.21;74.91
71105;BME280;58760;48.716;8.962;2023-03-08T09:39:55;94438.25;;;5.14;75.12
71105;BME280;58760;48.716;8.962;2023-03-08T09:42:22;94432.69;;;5.31;75.47
71105;BME280;58760;48.716;8.962;2023-03-08T09:47:54;94434.88;;;5.55;74.68
71105;BME280;58760;48.716;8.962;2023-03-08T09:50:42;94422.75;;;5.88;73.98
71105;BME280;58760;48.716;8.962;2023-03-08T09:53:17;94425.03;;;6.04;73.64
71105;BME280;58760;48.716;8.962;2023-03-08T09:55:47;94416.31;;;5.97;73.68
71105;BME280;58760;48.716;8.962;2023-03-08T09:58:23;94424.66;;;6.14;73.45
71105;BME280;58760;48.716;8.962;2023-03-08T10:00:55;94420.16;;;6.01;74.86
71105;BME280;58760;48.716;8.962;2023-03-08T10:09:06;94401.38;;;6.11;76.92
71105;BME280;58760;48.716;8.962;2023-03-08T10:11:46;94396.09;;;6.04;76.58
71105;BME280;58760;48.716;8.962;2023-03-08T10:14:22;94402.50;;;5.95;77.46
71105;BME280;58760;48.716;8.962;2023-03-08T10:16:53;94403.19;;;6.10;77.32
71105;BME280;58760;48.716;8.962;2023-03-08T10:19:30;94404.84;;;6.31;78.17
71105;BME280;58760;48.716;8.962;2023-03-08T10:22:10;94396.19;;;6.44;79.08
71105;BME280;58760;48.716;8.962;2023-03-08T10:24:49;94390.94;;;6.50;78.78
71105;BME280;58760;48.716;8.962;2023-03-08T10:27:31;94385.28;;;6.73;79.21
71105;BME280;58760;48.716;8.962;2023-03-08T10:30:00;94389.75;;;6.92;78.31
71105;BME280;58760;48.716;8.962;2023-03-08T10:32:26;94385.25;;;7.12;79.28
71105;BME280;58760;48.716;8.962;2023-03-08T10:34:59;94368.56;;;7.38;78.62
71105;BME280;58760;48.716;8.962;2023-03-08T10:37:29;94371.13;;;7.71;77.24
71105;BME280;58760;48.716;8.962;2023-03-08T10:39:55;94359.38;;;8.11;76.47
71105;BME280;58760;48.716;8.962;2023-03-08T10:42:25;94351.59;;;8.61;75.04
71105;BME280;58760;48.716;8.962;2023-03-08T10:44:53;94349.13;;;8.90;73.49
71105;BME280;58760;48.716;8.962;2023-03-08T10:47:28;94350.25;;;9.01;72.57
71105;BME280;58760;48.716;8.962;2023-03-08T10:50:13;94353.38;;;8.91;72.86
71105;BME280;58760;48.716;8.962;2023-03-08T10:52:40;94342.31;;;9.01;72.63
71105;BME280;58760;48.716;8.962;2023-03-08T10:55:09;94342.38;;;9.19;72.50
71105;BME280;58760;48.716;8.962;2023-03-08T10:57:36;94354.28;;;9.28;72.08
71105;BME280;58760;48.716;8.962;2023-03-08T11:02:49;94356.81;;;9.41;71.89
71105;BME280;58760;48.716;8.962;2023-03-08T11:05:25;94347.63;;;9.62;71.15
71105;BME280;58760;48.716;8.962;2023-03-08T11:07:58;94346.22;;;9.78;70.50
71105;BME280;58760;48.716;8.962;2023-03-08T11:10:28;94351.38;;;9.91;70.50
71105;BME280;58760;48.716;8.962;2023-03-08T11:13:01;94346.22;;;10.14;70.13
71105;BME280;58760;48.716;8.962;2023-03-08T11:15:29;94342.88;;;10.19;69.04
71105;BME280;58760;48.716;8.962;2023-03-08T11:18:07;94360.09;;;10.28;69.13
71105;BME280;58760;48.716;8.962;2023-03-08T11:20:43;94372.72;;;10.14;70.00
71105;BME280;58760;48.716;8.962;2023-03-08T11:23:25;94359.28;;;10.09;70.25
71105;BME280;58760;48.716;8.962;2023-03-08T11:26:57;94365.59;;;10.08;70.16
71105;BME280;58760;48.716;8.962;2023-03-08T11:29:07;94363.56;;;9.92;70.58
71105;BME280;58760;48.716;8.962;2023-03-08T11:39:38;94360.69;;;10.60;69.13
71105;BME280;58760;48.716;8.962;2023-03-08T11:42:30;94351.72;;;10.72;68.13
71105;BME280;58760;48.716;8.962;2023-03-08T11:55:45;94384.69;;;10.65;68.47
71105;BME280;58760;48.716;8.962;2023-03-08T12:00:46;94351.28;;;10.87;68.24
71105;BME280;58760;48.716;8.962;2023-03-08T12:03:18;94349.88;;;10.73;68.68
71105;BME280;58760;48.716;8.962;2023-03-08T12:05:51;94342.13;;;10.71;69.01
71105;BME280;58760;48.716;8.962;2023-03-08T12:08:33;94350.91;;;12.11;66.28
71105;BME280;58760;48.716;8.962;2023-03-08T12:11:20;94335.16;;;12.78;62.56
71105;BME280;58760;48.716;8.962;2023-03-08T12:13:50;94333.59;;;12.98;61.34
71105;BME280;58760;48.716;8.962;2023-03-08T12:19:29;94335.66;;;13.41;60.25
71105;BME280;58760;48.716;8.962;2023-03-08T12:24:57;94368.81;;;13.17;60.13
71105;BME280;58760;48.716;8.962;2023-03-08T12:30:34;94350.53;;;13.76;59.31
71105;BME280;58760;48.716;8.962;2023-03-08T12:33:04;94343.31;;;13.54;60.08
71105;BME280;58760;48.716;8.962;2023-03-08T12:35:33;94346.00;;;14.36;57.65
71105;BME280;58760;48.716;8.962;2023-03-08T12:38:24;94359.34;;;14.36;57.33
71105;BME280;58760;48.716;8.962;2023-03-08T12:40:46;94349.97;;;15.14;54.82
71105;BME280;58760;48.716;8.962;2023-03-08T12:48:34;94364.94;;;14.61;56.35
71105;BME280;58760;48.716;8.962;2023-03-08T13:02:25;94350.38;;;14.04;59.41
71105;BME280;58760;48.716;8.962;2023-03-08T13:16:48;94380.94;;;12.80;64.97
71105;BME280;58760;48.716;8.962;2023-03-08T13:18:49;94378.91;;;12.02;70.20
71105;BME280;58760;48.716;8.962;2023-03-08T13:21:32;94391.06;;;11.75;71.16
71105;BME280;58760;48.716;8.962;2023-03-08T13:29:32;94371.97;;;12.41;70.13
71105;BME280;58760;48.716;8.962;2023-03-08T13:32:04;94378.56;;;11.87;70.98
71105;BME280;58760;48.716;8.962;2023-03-08T13:34:33;94378.13;;;11.67;72.87
71105;BME280;58760;48.716;8.962;2023-03-08T13:36:59;94377.66;;;11.46;71.83
71105;BME280;58760;48.716;8.962;2023-03-08T13:39:27;94375.09;;;11.51;73.01
71105;BME280;58760;48.716;8.962;2023-03-08T13:42:05;94361.97;;;11.57;72.36
71105;BME280;58760;48.716;8.962;2023-03-08T13:44:30;94383.53;;;11.37;73.73
71105;BME280;58760;48.716;8.962;2023-03-08T13:46:58;94373.03;;;11.53;73.51
71105;BME280;58760;48.716;8.962;2023-03-08T13:49:30;94357.69;;;11.79;72.60
71105;BME280;58760;48.716;8.962;2023-03-08T13:51:59;94343.38;;;12.93;69.05
71105;BME280;58760;48.716;8.962;2023-03-08T13:54:33;94338.03;;;14.41;63.20
71105;BME280;58760;48.716;8.962;2023-03-08T13:57:05;94343.09;;;14.64;60.76
71105;BME280;58760;48.716;8.962;2023-03-08T13:59:46;94321.19;;;14.62;60.33
71105;BME280;58760;48.716;8.962;2023-03-08T14:02:20;94313.25;;;15.31;57.55
71105;BME280;58760;48.716;8.962;2023-03-08T14:04:46;94325.31;;;15.02;58.04
71105;BME280;58760;48.716;8.962;2023-03-08T14:07:32;94310.81;;;13.96;61.13
71105;BME280;58760;48.716;8.962;2023-03-08T14:09:58;94314.28;;;13.96;61.74
71105;BME280;58760;48.716;8.962;2023-03-08T14:12:31;94317.16;;;13.51;61.96
71105;BME280;58760;48.716;8.962;2023-03-08T14:15:00;94326.97;;;13.89;61.58
71105;BME280;58760;48.716;8.962;2023-03-08T14:17:29;94347.19;;;13.14;63.22
71105;BME280;58760;48.716;8.962;2023-03-08T14:19:57;94322.81;;;13.05;64.25
71105;BME280;58760;48.716;8.962;2023-03-08T14:22:26;94313.44;;;12.86;65.03
71105;BME280;58760;48.716;8.962;2023-03-08T14:25:00;94316.97;;;12.91;64.89
71105;BME280;58760;48.716;8.962;2023-03-08T14:27:38;94318.03;;;13.40;64.47
71105;BME280;58760;48.716;8.962;2023-03-08T14:30:25;94313.69;;;13.73;63.35
71105;BME280;58760;48.716;8.962;2023-03-08T14:35:34;94306.28;;;13.75;62.52
71105;BME280;58760;48.716;8.962;2023-03-08T14:38:00;94308.34;;;14.11;61.74
71105;BME280;58760;48.716;8.962;2023-03-08T14:40:30;94304.06;;;15.17;59.90
71105;BME280;58760;48.716;8.962;2023-03-08T14:43:03;94302.03;;;14.22;61.16